createdAt,value
2018-08-04T00:02:53.028Z,25.00
2018-08-04T00:12:39.269Z,25.00
2018-08-04T00:17:32.316Z,24.90
2018-08-04T00:22:25.312Z,24.80
2018-08-04T00:32:11.314Z,24.70
2018-08-04T00:37:04.334Z,24.60
2018-08-04T00:41:57.349Z,24.60
2018-08-04T00:46:50.336Z,24.50
2018-08-04T00:51:43.354Z,24.40
2018-08-04T00:56:36.371Z,24.30
2018-08-04T01:01:29.416Z,24.30
2018-08-04T01:06:22.412Z,24.30
2018-08-04T01:11:15.430Z,24.20
2018-08-04T01:16:08.423Z,24.10
2018-08-04T01:21:01.429Z,24.00
2018-08-04T01:25:54.433Z,23.90
2018-08-04T01:30:47.456Z,23.90
2018-08-04T01:35:40.427Z,23.90
2018-08-04T01:40:33.417Z,23.80
2018-08-04T01:50:19.429Z,23.80
2018-08-04T01:55:12.497Z,23.70
2018-08-04T02:00:05.838Z,23.70
2018-08-04T02:04:58.836Z,23.70
2018-08-04T02:09:52.190Z,23.70
2018-08-04T02:14:45.180Z,23.70
2018-08-04T02:19:38.172Z,23.50
2018-08-04T02:24:31.192Z,23.40
2018-08-04T02:29:24.164Z,23.30
2018-08-04T02:34:17.151Z,23.30
2018-08-04T02:39:10.153Z,23.20
2018-08-04T02:44:03.177Z,23.20
2018-08-04T02:48:56.160Z,23.10
2018-08-04T02:53:49.167Z,23.00
2018-08-04T02:58:42.153Z,23.00
2018-08-04T03:03:35.134Z,23.00
2018-08-04T03:08:28.146Z,22.90
2018-08-04T03:13:21.144Z,22.80
2018-08-04T03:23:07.094Z,22.70
2018-08-04T03:28:00.176Z,22.70
2018-08-04T03:32:53.223Z,22.70
2018-08-04T03:37:46.217Z,22.70
2018-08-04T03:42:39.673Z,22.60
2018-08-04T03:47:32.661Z,22.60
2018-08-04T03:52:25.717Z,22.50
2018-08-04T03:57:18.726Z,22.40
2018-08-04T04:02:11.783Z,22.40
2018-08-04T04:07:05.212Z,22.40
2018-08-04T04:11:58.226Z,22.40
2018-08-04T04:16:51.213Z,22.30
2018-08-04T04:21:44.237Z,22.40
2018-08-04T04:26:37.233Z,22.40
2018-08-04T04:31:30.226Z,22.70
2018-08-04T04:36:23.219Z,23.00
2018-08-04T04:41:16.233Z,23.80
2018-08-04T04:46:09.218Z,24.60
2018-08-04T04:51:02.257Z,25.40
2018-08-04T04:55:55.236Z,26.00
2018-08-04T05:00:48.242Z,26.50
2018-08-04T05:05:41.265Z,27.10
2018-08-04T05:10:34.283Z,28.40
2018-08-04T05:15:27.292Z,29.30
2018-08-04T05:25:13.279Z,30.30
2018-08-04T05:30:06.912Z,30.20
2018-08-04T05:39:52.902Z,31.70
2018-08-04T05:44:45.913Z,32.50
2018-08-04T05:54:31.916Z,32.30
2018-08-04T05:59:24.930Z,32.50
2018-08-04T06:04:17.916Z,32.80
2018-08-04T06:09:11.682Z,31.70
2018-08-04T06:18:57.716Z,32.10
2018-08-04T06:23:50.720Z,33.10
2018-08-04T06:28:43.812Z,32.60
2018-08-04T06:33:36.860Z,31.80
2018-08-04T06:38:29.897Z,31.10
2018-08-04T06:48:15.913Z,30.20
2018-08-04T06:53:08.964Z,30.40
2018-08-04T06:58:02.058Z,30.70
2018-08-04T07:02:55.093Z,30.80
2018-08-04T07:07:48.178Z,30.60
2018-08-04T07:12:41.204Z,31.20
2018-08-04T07:17:34.253Z,30.70
2018-08-04T07:27:20.593Z,30.80
2018-08-04T07:37:06.695Z,30.20
2018-08-04T07:41:59.736Z,30.10
2018-08-04T07:46:52.755Z,30.30
2018-08-04T07:51:45.764Z,30.80
2018-08-04T07:56:38.789Z,30.10
2018-08-04T08:01:31.812Z,30.30
2018-08-04T08:06:24.852Z,30.40
2018-08-04T08:11:17.864Z,30.60
2018-08-04T08:16:10.902Z,30.80
2018-08-04T08:26:09.341Z,30.80
2018-08-04T08:31:03.258Z,30.80
2018-08-04T08:35:56.281Z,30.80
2018-08-04T08:45:42.214Z,31.60
2018-08-04T08:50:35.236Z,31.60
2018-08-04T08:55:28.264Z,31.80
2018-08-04T09:00:21.312Z,31.30
2018-08-04T09:05:14.352Z,31.30
2018-08-04T09:10:11.320Z,31.80
2018-08-04T09:15:04.561Z,32.10
2018-08-04T09:19:57.621Z,32.30
2018-08-04T09:24:50.668Z,31.20
2018-08-04T09:29:43.749Z,31.40
2018-08-04T09:39:30.309Z,31.70
2018-08-04T09:44:23.363Z,32.20
2018-08-04T09:49:16.389Z,32.20
2018-08-04T09:54:09.407Z,32.60
2018-08-04T09:59:02.432Z,32.60
2018-08-04T10:03:55.477Z,32.20
2018-08-04T10:08:48.478Z,32.60
2018-08-04T10:13:41.500Z,32.80
2018-08-04T10:18:34.556Z,31.80
2018-08-04T10:23:27.624Z,31.80
2018-08-04T10:28:20.618Z,31.90
2018-08-04T10:33:13.654Z,32.60
2018-08-04T10:38:06.672Z,33.20
2018-08-04T10:42:59.721Z,33.70
2018-08-04T10:47:52.726Z,33.90
2018-08-04T10:52:45.749Z,34.70
2018-08-04T11:02:31.710Z,35.60
2018-08-04T11:07:24.727Z,35.40
2018-08-04T11:12:17.741Z,35.60
2018-08-04T11:17:10.735Z,35.90
2018-08-04T11:22:03.847Z,36.20
2018-08-04T11:26:56.904Z,35.80
2018-08-04T11:31:49.922Z,36.20
2018-08-04T11:36:42.885Z,35.90
2018-08-04T11:41:35.937Z,35.20
2018-08-04T11:46:28.967Z,35.70
2018-08-04T11:51:21.972Z,36.40
2018-08-04T12:01:07.924Z,32.40
2018-08-04T12:06:00.906Z,31.80
2018-08-04T12:10:53.972Z,31.90
2018-08-04T12:15:46.988Z,32.20
2018-08-04T12:20:40.032Z,31.80
2018-08-04T12:25:33.138Z,30.60
2018-08-04T12:30:26.068Z,30.20
2018-08-04T12:35:19.088Z,30.20
2018-08-04T12:40:12.100Z,30.30
2018-08-04T12:45:05.713Z,30.20
2018-08-04T12:49:58.904Z,30.50
2018-08-04T12:54:51.968Z,30.90
2018-08-04T12:59:45.069Z,31.10
2018-08-04T13:04:38.071Z,31.40
2018-08-04T13:09:31.075Z,31.90
2018-08-04T13:14:24.160Z,32.20
2018-08-04T13:19:17.176Z,32.40
2018-08-04T13:24:10.172Z,32.80
2018-08-04T13:29:03.169Z,33.20
2018-08-04T13:38:49.164Z,33.20
2018-08-04T13:43:42.189Z,33.50
2018-08-04T13:53:28.166Z,33.50
2018-08-04T13:58:21.168Z,33.80
2018-08-04T14:03:14.174Z,33.70
2018-08-04T14:08:07.236Z,33.50
2018-08-04T14:13:00.236Z,33.60
2018-08-04T14:17:53.244Z,33.70
2018-08-04T14:22:46.346Z,33.90
2018-08-04T14:27:39.381Z,33.70
2018-08-04T14:32:32.409Z,33.70
2018-08-04T14:37:25.501Z,33.80
2018-08-04T14:42:18.521Z,33.90
2018-08-04T14:47:11.516Z,33.30
2018-08-04T14:52:04.579Z,32.70
2018-08-04T14:56:57.575Z,33.10
2018-08-04T15:01:50.623Z,33.40
2018-08-04T15:06:43.640Z,33.00
2018-08-04T15:11:36.705Z,33.20
2018-08-04T15:16:29.768Z,33.10
2018-08-04T15:21:22.803Z,32.90
2018-08-04T15:26:15.812Z,33.00
2018-08-04T15:31:08.848Z,32.80
2018-08-04T15:36:01.875Z,32.70
2018-08-04T15:40:54.883Z,32.80
2018-08-04T15:45:47.992Z,33.10
2018-08-04T15:50:41.033Z,33.00
2018-08-04T15:55:34.076Z,33.20
2018-08-04T16:00:27.100Z,33.40
2018-08-04T16:05:20.146Z,33.50
2018-08-04T16:10:13.141Z,33.40
2018-08-04T16:15:06.148Z,33.30
2018-08-04T16:24:52.132Z,33.30
2018-08-04T16:29:45.330Z,33.30
2018-08-04T16:34:38.819Z,33.40
2018-08-04T16:44:24.728Z,33.30
2018-08-04T16:49:17.791Z,33.40
2018-08-04T16:54:10.783Z,33.20
2018-08-04T16:59:03.823Z,33.00
2018-08-04T17:03:56.855Z,32.90
2018-08-04T17:13:42.828Z,32.40
2018-08-04T17:18:35.857Z,32.10
2018-08-04T17:23:28.852Z,32.00
2018-08-04T17:28:21.943Z,31.90
2018-08-04T17:33:14.925Z,31.60
2018-08-04T17:38:07.917Z,31.50
2018-08-04T17:47:53.980Z,31.40
2018-08-04T17:52:47.009Z,31.30
2018-08-04T17:57:40.049Z,31.20
2018-08-04T18:02:33.040Z,31.00
2018-08-04T18:07:26.136Z,31.00
2018-08-04T18:12:19.157Z,30.90
2018-08-04T18:17:12.162Z,30.90
2018-08-04T18:22:05.316Z,30.80
2018-08-04T18:26:58.361Z,30.80
2018-08-04T18:31:51.387Z,30.80
2018-08-04T18:36:44.396Z,30.60
2018-08-04T18:41:37.442Z,30.70
2018-08-04T18:46:30.460Z,30.70
2018-08-04T18:51:23.480Z,30.60
2018-08-04T18:56:16.476Z,30.40
2018-08-04T19:01:09.505Z,30.30
2018-08-04T19:10:55.484Z,30.10
2018-08-04T19:15:48.509Z,29.90
2018-08-04T19:20:41.592Z,29.70
2018-08-04T19:30:27.527Z,29.50
2018-08-04T19:40:13.637Z,29.00
2018-08-04T19:45:06.904Z,28.90
2018-08-04T19:49:59.937Z,28.70
2018-08-04T19:54:53.045Z,28.70
2018-08-04T19:59:46.025Z,28.60
2018-08-04T20:04:39.009Z,28.50
2018-08-04T20:09:32.039Z,28.40
2018-08-04T20:14:25.049Z,28.20
2018-08-04T20:19:18.051Z,28.10
2018-08-04T20:24:11.061Z,28.00
2018-08-04T20:33:57.004Z,27.70
2018-08-04T20:38:50.022Z,27.70
2018-08-04T20:43:43.020Z,27.50
2018-08-04T20:48:36.012Z,27.40
2018-08-04T20:53:29.024Z,27.10
2018-08-04T20:58:22.125Z,27.00
2018-08-04T21:03:15.057Z,26.90
2018-08-04T21:13:01.212Z,26.80
2018-08-04T21:17:54.269Z,26.70
2018-08-04T21:22:47.267Z,26.60
2018-08-04T21:27:40.252Z,26.50
2018-08-04T21:32:33.240Z,26.40
2018-08-04T21:37:26.291Z,26.30
2018-08-04T21:42:19.315Z,26.30
2018-08-04T21:47:12.293Z,26.30
2018-08-04T21:52:05.899Z,26.20
2018-08-04T21:56:58.882Z,26.00
2018-08-04T22:01:56.149Z,25.90
2018-08-04T22:08:03.993Z,25.80
2018-08-04T22:12:57.601Z,25.70
2018-08-04T22:17:50.644Z,25.60
2018-08-04T22:22:44.038Z,25.60
2018-08-04T22:32:29.972Z,25.50
2018-08-04T22:37:22.970Z,25.30
2018-08-04T22:42:16.050Z,25.20
2018-08-04T22:47:09.041Z,25.10
2018-08-04T22:52:02.060Z,25.10
2018-08-04T22:56:55.036Z,24.90
2018-08-04T23:01:48.040Z,24.90
2018-08-04T23:06:41.047Z,24.80
2018-08-04T23:11:34.052Z,24.80
2018-08-04T23:16:27.024Z,24.80
2018-08-04T23:21:20.029Z,24.60
2018-08-04T23:26:13.037Z,24.60
2018-08-04T23:31:06.008Z,24.70
2018-08-04T23:40:52.074Z,24.70
2018-08-04T23:45:45.092Z,24.70
2018-08-04T23:50:38.109Z,24.60
2018-08-04T23:55:31.119Z,24.70
